Strona główna
METAR-TAF:

METAR-TAF

Lotnisko :

Port lotniczy Lyon-Saint-Exupéry

Lyon / Saint Exupéry, Francja

Szerokość geograficzna: 45-44N, Długość geograficzna: 005-05E, wysokość: 248 m

Aktualna obserwacja pogody

Raport powstał 22 minut temu, godzina 12:30 UTC
Wiatr 7 kt od północno-północny wschód, zmienny między północny zachód i wschód
Temperatura 29°C
Wilgotność 25%
Ciśnienie 1014 hPa
Widzialność 10 km lub więcej
Brak chmur poniżej 1500 m i brak chmur cumulonimbus

METAR: LFLL 171230Z 02007KT 310V100 CAVOK 29/07 Q1014 NOSIG

czas: 14:52 (12:52 UTC)

Prognoza

Raport powstał 1 godzina i 52 minut temu, godzina 11:00 UTC
Prognoza ważna od 17 godzina 12 UTC do 18 godzina 18 UTC
Wiatr 8 kt od północ
Widzialność 10 km lub więcej
Brak chmur poniżej 1500 m i brak chmur cumulonimbus
Przejściowo
od 17 godzina 22 UTC do 18 godzina 06 UTC
Wiatr 2 kt z kierunków zmiennych

TAF: LFLL 171100Z 1712/1818 36008KT CAVOK TEMPO 1722/1806 VRB02KT

Obserwacja i prognoza pogody dla ponad 4000 lotnisk (raport METAR i TAF).

Dostępne stacje oznaczono żółtymi i czerwonymi punktami na mapie.

Najedź kursorem aby zobaczyć nazwę stacji.

Kliknij aby zobaczyć obserwacje i prognozy pogody.

Aby zmienić mapę: kliknij na zielony przycisk z czarnym krzyżykiem, aby powiększyć; na zielony przycisk z myślnikiem, aby pomniejszyć; na zielone strzałki, aby przejść do map sąsiednich.


METAR-TAF: